Nearby METAR Reports

METAR is the scheduled surface weather observation taken hourly at civil and military airport locations.

METAR is an acronym from the French language and roughly translates as Aviation Routine Weather Report.

 

EGPL - Benbecula Island, United Kingdom
Distance from station: WNW 41mi, 66km
Updated: 19/05/2022 03:20
Few Clouds
Few Clouds
 Wind from SSW
Wind: SSW 15 mph , 24 km/h
Temperature: 10°C
Wind Chill: 7°C
Dew Point: 9°C
Humidity: 94%
Barometer: 1005 hPa
Clouds: Few Clouds
Visibility: 6 miles , 10 km
Cloud details: Few Clouds 640 m
2022/05/19 02:20 EGPL 190220Z AUTO 20013KT 9999 FEW021/// 10/09 Q1005
EGPU - Tiree Island, United Kingdom
Distance from station: SSW 56mi, 90km
Updated: 19/05/2022 03:20
Few Clouds
Few Clouds
 Wind from SSW
Wind: SSW 15 mph , 24 km/h
Temperature: 10°C
Wind Chill: 7°C
Dew Point: 8°C
Humidity: 88%
Barometer: 1007 hPa
Clouds: Few Clouds
Visibility: 6 miles , 10 km
Cloud details: Few Clouds 640 m
2022/05/19 02:20 EGPU 190220Z AUTO 21013KT 9999 FEW021/// 10/08 Q1007
 
EGEO - Oban Airport, United Kingdom
Distance from station: SE 65mi, 105km
Updated: 18/05/2022 16:50
NOT Current
Few Clouds
Few Clouds
 Wind from SSE
Wind: SSE 24 mph , 39 km/h
Temperature: 15°C
Dew Point: 6°C
Humidity: 55%
Barometer: 1011 hPa
Clouds: Few Clouds
Visibility: 6 miles , 10 km
Cloud details: Few Clouds 1280 m
2022/05/18 15:50 EGEO 181550Z 16021KT 9999 FEW042 15/06 Q1011
EGPO - Stornoway, United Kingdom
Distance from station: 0 66mi, 106km
Updated: 19/05/2022 03:20
Light rain, Mostly cloudy
Light rain, Mostly cloudy
 Wind from S
Wind: S 22 mph , 35 km/h, Gust: 33 mph , 54 km/h
Temperature: 10°C
Wind Chill: 6°C
Dew Point: 9°C
Humidity: 94%
Barometer: 1004 hPa
Summary: Light rain
Clouds: Mostly cloudy
Visibility: 6 miles , 10 km
Cloud details: Partly cloudy 30 m
Mostly cloudy 244 m
Mostly cloudy 518 m
2022/05/19 02:20 EGPO 190220Z AUTO 19019G29KT 9999 -RA SCT001/// BKN008/// BKN017/// 10/09 Q1004 RERA
 
EGPE - Inverness/Dalcro, United Kingdom
Distance from station: ENE 88mi, 141km
Updated: 19/05/2022 03:20
Partly cloudy
Partly cloudy
 Wind from SSW
Wind: SSW 5 mph , 7 km/h
Temperature: 8°C
Wind Chill: 7°C
Dew Point: 7°C
Humidity: 93%
Barometer: 1007 hPa
Clouds: Partly cloudy
Visibility: 6 miles , 10 km
2022/05/19 02:20 EGPE 190220Z 20004KT 9999 NSC 08/07 Q1007
EGQA - Tain Range (saws, United Kingdom
Distance from station: ENE 97mi, 156km
Updated: 18/05/2022 14:50
NOT Current
Few Clouds
Few Clouds
 Wind from SSW
Wind: SSW 18 mph , 30 km/h, Gust: 31 mph , 50 km/h
Clouds: Few Clouds
Visibility: 6 miles , 10 km
Cloud details: Few Clouds 701 m
2022/05/18 13:50 EGQA 181350Z 20016G27KT 9999 FEW023 16/// Q1012 RMK BLU
 
EGQK - Kinloss Raf, United Kingdom
Distance from station: ENE 107mi, 171km
Updated: 19/05/2022 02:50
Mostly cloudy
Mostly cloudy
 Wind from SSW
Wind: SSW 8 mph , 13 km/h
Temperature: 10°C
Wind Chill: 8°C
Dew Point: 8°C
Humidity: 88%
Barometer: 1007 hPa
Clouds: Mostly cloudy
Visibility: 6 miles , 10 km
Cloud details: Few Clouds 1524 m
Mostly cloudy 3353 m
2022/05/19 01:50 EGQK 190150Z AUTO 21007KT 9999 FEW050/// BKN110/// 10/08 Q1007 RERA
EGPI - Islay/Port Ellen, United Kingdom
Distance from station: S 110mi, 177km
Updated: 19/05/2022 03:20
Clear
Clear
 Wind from SSW
Wind: SSW 9 mph , 15 km/h
Temperature: 9°C
Wind Chill: 7°C
Dew Point: 8°C
Humidity: 94%
Barometer: 1010 hPa
Clouds: Clear
Visibility: 6 miles , 10 km
2022/05/19 02:20 EGPI 190220Z AUTO 20008KT 160V230 9999 NCD 09/08 Q1010
 
EGQS - Lossiemouth Raf, United Kingdom
Distance from station: ENE 117mi, 188km
Updated: 19/05/2022 02:50
Clear
Clear
 Wind from SSW
Wind: SSW 12 mph , 19 km/h
Temperature: 10°C
Wind Chill: 7°C
Dew Point: 8°C
Humidity: 88%
Barometer: 1007 hPa
Summary: Clear
Visibility: greater than 7 miles , 10 km
2022/05/19 01:50 EGQS 190150Z 21010KT CAVOK 10/08 Q1007 RERA RMK BLU
EGPF - Glasgow Airport, United Kingdom
Distance from station: SE 121mi, 195km
Updated: 19/05/2022 03:20
Overcast
Overcast
 Wind from SSW
Wind: SSW 15 mph , 24 km/h
Temperature: 12°C
Dew Point: 9°C
Humidity: 82%
Barometer: 1010 hPa
Clouds: Overcast
Visibility: 6 miles , 10 km
Cloud details: Mostly cloudy 701 m
Overcast 945 m
2022/05/19 02:20 EGPF 190220Z AUTO 21013KT 9999 BKN023 OVC031 12/09 Q1010
 
EGEC - Campbeltown, United Kingdom
Distance from station: SSE 129mi, 207km
Updated: 18/05/2022 18:20
NOT Current
Few Clouds
Few Clouds
 Wind from SSE
Wind: SSE 32 mph , 52 km/h
Temperature: 14°C
Dew Point: 9°C
Humidity: 72%
Barometer: 1009 hPa
Clouds: Few Clouds
Visibility: 6 miles , 10 km
Cloud details: Few Clouds 579 m
2022/05/18 17:20 EGEC 181720Z 16028KT 9999 FEW019 14/09 Q1009
EGPN - Dundee/Riverside, United Kingdom
Distance from station: ESE 137mi, 221km
Updated: 18/05/2022 21:20
NOT Current
Clear
Clear
 Wind from E
Wind: E 7 mph , 11 km/h
Temperature: 13°C
Dew Point: 8°C
Humidity: 72%
Barometer: 1011 hPa
Summary: Clear
Visibility: greater than 7 miles , 10 km
2022/05/18 20:20 EGPN 182020Z 10006KT CAVOK 13/08 Q1011
 
EGPK - Prestwick(Civ/Na, United Kingdom
Distance from station: SSE 139mi, 224km
Updated: 19/05/2022 03:20
Few Clouds
Few Clouds
 Wind from SSW
Wind: SSW 12 mph , 19 km/h
Temperature: 11°C
Dew Point: 9°C
Humidity: 88%
Barometer: 1010 hPa
Clouds: Few Clouds
Visibility: 6 miles , 10 km
Cloud details: Few Clouds 823 m
2022/05/19 02:20 EGPK 190220Z AUTO 20010KT 9999 FEW027/// 11/09 Q1010
EGQL - Leuchars Raf, United Kingdom
Distance from station: ESE 145mi, 233km
Updated: 19/05/2022 03:20
Clear
Clear
 Wind from WSW
Wind: WSW 9 mph , 15 km/h
Temperature: 10°C
Wind Chill: 8°C
Dew Point: 8°C
Humidity: 88%
Barometer: 1010 hPa
Clouds: Clear
Visibility: 6 miles , 10 km
2022/05/19 02:20 EGQL 190220Z AUTO 25008KT 9999 NCD 10/08 Q1010
 
EGPH - Edinburgh Airpor, United Kingdom
Distance from station: SE 145mi, 234km
Updated: 19/05/2022 03:20
Clear
Clear
 Wind from SW
Wind: SW 6 mph , 9 km/h
Temperature: 10°C
Wind Chill: 9°C
Dew Point: 8°C
Humidity: 88%
Barometer: 1010 hPa
Summary: Clear
Visibility: greater than 7 miles , 10 km
2022/05/19 02:20 EGPH 190220Z 22005KT CAVOK 10/08 Q1010
EGPC - Wick, United Kingdom
Distance from station: NE 146mi, 234km
Updated: 19/05/2022 03:20
Light rain, Partly cloudy
Light rain, Partly cloudy
 Wind from S
Wind: S 12 mph , 19 km/h
Temperature: 10°C
Wind Chill: 7°C
Dew Point: 8°C
Humidity: 88%
Barometer: 1006 hPa
Summary: Light rain
Clouds: Partly cloudy
Visibility: 5 miles , 8 km
Cloud details: Few Clouds 488 m
Partly cloudy 945 m
2022/05/19 02:20 EGPC 190220Z AUTO 19010KT 160V220 8000 -RA FEW016/// SCT031/// 10/08 Q1006 RERA

-

free counters
QR Code Twitter Scottish Weather Network UK Weather Network
Argyll House B & B

Argyll House B & B is situated in North West Skye and is the perfect base to see all that the Isle of Skye has to offer. Bookings are been taken for 2022 and 2023